Tiempo atmosférico en la estación meteorológica de Jávea/ Xàbia, Alacant/Alicante (15 m.)



Fecha
DESCASC
Temp. máxima en grados centígrados (hora)
DESCASC
Temp. mínima en grados centígrados (hora)
DESCASC
Temp. media en grados centígrados
DESCASC
Racha de viento máxima en m/sg (hora)
DESCASC
Velocidad máxima media en intervalos de 10 minutos(hora)
DESCASC
Precipitaciones diarias en mm
DESCASC
Precipitaciones de 00:00 a 06:00 en mm
DESCASC
Precipitaciones de 06:00 a 12:00 en mm
DESCASC
Precipitaciones de 12:00 a 18:00 en mm
DESCASC
Precipitaciones de 18:00 a 24:00 en mm
DESCASC
13-06-2019 24.1 (15:00) 18.5 (23:59) 21.3 10.56 (18:30) 6.39 (18:40) 0 0 0 0 0
12-06-2019 22.6 (13:20) 15.5 (04:40) 19.1 8.61 (14:00) 4.72 (13:00) 0 0 0 0 0
11-06-2019 26.6 (13:20) 15.1 (07:00) 20.9 13.89 (15:10) 7.78 (18:00) 0.8 0 0 0 0.8
10-06-2019 25.2 (18:00) 17.3 (04:50) 21.3 9.44 (10:50) 5.56 (11:40) 0 0 0 0 0
09-06-2019 26 (13:40) 18.2 (00:00) 22.1 11.11 (00:10) 6.39 (00:10) 0 0 0 0 0
08-06-2019 24.2 (13:10) 15 (00:00) 19.6 11.94 (23:50) 6.94 (23:59) 0 0 0 0 0
07-06-2019 28.6 (15:40) 13.5 (00:00) 21.1 7.22 (00:50) 4.44 (00:50) 0 0 0 0 0
06-06-2019 26.2 (16:10) 13.7 (00:00) 20 8.33 (15:50) 4.17 (18:40) 0 0 0 0 0
05-06-2019 30.6 (15:30) 15 (00:00) 22.8 13.06 (14:50) 6.94 (14:50) 0 0 0 0 0
04-06-2019 27.7 (15:30) 15.4 (00:00) 21.6 11.11 (15:50) 6.11 (20:30) 0 0 0 0 0
03-06-2019 27.5 (13:00) 12.8 (00:00) 20.2 10.56 (15:30) 5.56 (15:10) 0 0 0 0 0
02-06-2019 27.6 (13:40) 10.2 (00:00) 18.9 8.61 (14:20) 5.28 (14:40) 0 0 0 0 0
01-06-2019 27.5 (16:30) 10.2 (00:00) 18.8 6.39 (15:00) 3.61 (16:00) 0 0 0 0 0
31-05-2019 26.1 (16:50) 11 (00:00) 18.6 7.5 (16:20) 5 (15:00) 0 0 0 0 0
30-05-2019 25.5 (14:30) 12.2 (00:00) 18.8 9.44 (17:40) 5.28 (17:10) 0 0 0 0 0
29-05-2019 22.4 (19:30) 13.3 (00:00) 17.8 12.5 (07:30) 6.11 (07:40) 0 0 0 0 0
28-05-2019 23.1 (15:00) 15.2 (00:00) 19.2 7.22 (09:50) 4.44 (13:00) 0 0 0 0 0
27-05-2019 26.6 (15:10) 12 (00:00) 19.3 8.89 (19:00) 5 (18:30) 0 0 0 0 0
26-05-2019 23.4 (13:10) 11.4 (00:00) 17.4 8.06 (10:30) 5 (10:30) 0 0 0 0 0
25-05-2019 21.8 (16:40) 14 (00:00) 17.9 12.5 (11:50) 6.39 (11:50) 13 1 10.4 1.6 0
24-05-2019 20.8 (00:20) 15.6 (00:00) 18.2 8.61 (00:50) 5.56 (17:50) 2.4 0 0.2 1.8 0.4
23-05-2019 28.1 (13:30) 14.1 (00:00) 21.1 12.5 (13:30) 6.67 (13:40) 0 0 0 0 0
22-05-2019 24.7 (16:30) 11.6 (00:00) 18.2 10.83 (20:20) 5.28 (17:00) 0 0 0 0 0
21-05-2019 23.9 (16:40) 14.4 (04:20) 19.1 8.89 (18:50) 4.72 (18:40) 0.2 0 0.2 0 0
20-05-2019 23.5 (16:10) 10.2 (04:50) 16.8 6.67 (17:00) 3.89 (16:20) 0 0 0 0 0
19-05-2019 23.3 (17:00) 10.8 (00:00) 17 9.17 (16:10) 5 (01:50) 0 0 0 0 0
18-05-2019 19.8 (17:30) 10.6 (00:00) 15.2 6.67 (04:00) 3.89 (04:40) 1.6 0 0 1.4 0.2
17-05-2019 26.5 (14:20) 14.3 (00:00) 20.4 19.72 (09:00) 9.72 (09:00) 0 0 0 0 0

Gráficas

Temp. máximas Temp. mínimas Temp. medias Precipitaciones Rachas de viento máximas Velocidades máximas media en intervalos de 10 minutos

Datos horarios

Fecha y hora oficial Temperatura (ºC) Velocidad del viento (km/h) Dirección del viento Racha (km/h) Dirección de racha Precipitación (mm) Presión (hPa) Tendencia (hPa) Humedad (%)
2019-06-15 23:00:00 20.5 6 Sudoeste 15 Oeste 0 1016.4 1.4 76
2019-06-15 22:00:00 21.3 3 Sudoeste 17 Sur 0 1015.7 0.9 65
2019-06-15 21:00:00 23.7 9 Sudoeste 23 Sudoeste 0 1015.4 0.3 52
2019-06-15 20:00:00 25.5 16 Sur 26 Sur 0 1015 -0.5 28
2019-06-15 19:00:00 27.2 14 Sur 23 Sur 0 1014.8 -0.6 24
2019-06-15 18:00:00 28 10 Sur 23 Sur 0 1015.1 -0.5 29
2019-06-15 17:00:00 28.3 14 Sudeste 27 Sur 0 1015.5 -0.5 31
2019-06-15 16:00:00 29.7 12 Sudeste 28 Sudeste 0 1015.4 -0.6 22
2019-06-15 15:00:00 29.4 13 Sur 26 Norte 0 1015.6 -0.4 24
2019-06-15 14:00:00 28.2 10 Este 24 Norte 0 1016 0.1 23
2019-06-15 13:00:00 28.9 13 Norte 29 Norte 0 1016 0.2 21
2019-06-15 12:00:00 27.9 17 Norte 34 Norte 0 1016 0.9 23
2019-06-15 11:00:00 26.7 18 Noroeste 45 Noroeste 0 1015.9 1.6 22
2019-06-15 10:00:00 25.4 19 Noroeste 41 Noroeste 0 1015.8 2.3 24
2019-06-15 09:00:00 24.2 18 Noroeste 33 Noroeste 0 1015.1 2.4 25
2019-06-15 08:00:00 23.1 10 Oeste 31 Noroeste 0 1014.3 2 26
2019-06-15 07:00:00 22.1 7 Noroeste 33 Oeste 0 1013.5 1.2 27
2019-06-15 06:00:00 20.4 9 Sudoeste 29 Noroeste 0 1012.7 0.6 32
2019-06-15 05:00:00 17.9 8 Noroeste 25 Norte 0 1012.3 0.2 47
2019-06-15 04:00:00 16.8 4 Oeste 8 Oeste 0 1012.3 0.2 87
2019-06-15 03:00:00 18.6 8 Noroeste 17 Oeste 0 1012.1 0.4 83
2019-06-15 02:00:00 19.6 11 Oeste 19 Sudoeste 0 1012.1 1 82
2019-06-15 01:00:00 20.1 7 Sudoeste 22 Sudoeste 0 1012.1 1.7 79
2019-06-15 00:00:00 20.4 10 Sudoeste 27 Sudoeste 0 1011.7 1.8 75
2019-06-14 23:00:00 20.8 17 Sudoeste 36 Sudoeste 0 1011.1 1.6 71
2019-06-14 22:00:00 21.4 18 Oeste 38 Oeste 0 1010.4 1.3 66
2019-06-14 21:00:00 22.8 9 Oeste 34 Oeste 0 1009.9 0.3 58
2019-06-14 20:00:00 24.4 18 Sudoeste 48 Sur 0 1009.5 -0.2 50
2019-06-14 19:00:00 26.4 20 Sur 45 Sur 0 1009.1 -1 47
2019-06-14 18:00:00 26.2 22 Sur 46 Sur 0 1009.6 -0.6 53
2019-06-14 17:00:00 26.3 25 Sur 39 Sur 0 1009.7 -0.7 53
2019-06-14 16:00:00 26.3 19 Sur 41 Sur 0 1010.1 -0.8 56
2019-06-14 15:00:00 26.8 22 Sur 39 Sur 0 1010.2 -0.7 53
2019-06-14 14:00:00 27 16 Sudoeste 32 Sur 0 1010.4 -0.4 42
2019-06-14 13:00:00 23.3 10 Sur 21 Sur 0 1010.9 0.7 54
2019-06-14 12:00:00 24 12 Sur 22 Sur 0 1010.9 1.1 46
2019-06-14 11:00:00 23.8 10 Sur 23 Sur 0 1010.8 1.2 46
2019-06-14 10:00:00 22.6 5 Sudoeste 17 Oeste 0 1010.2 1 34
2019-06-14 09:00:00 18.3 7 Oeste 15 Sudoeste 0 1009.8 1.4 55
2019-06-14 08:00:00 16.5 6 Sudoeste 10 Sudoeste 0 1009.6 0.6 69
2019-06-14 07:00:00 16.3 4 Sur 9 Oeste 0 1009.2 0.4 68
2019-06-14 06:00:00 17.4 7 Sudoeste 16 Oeste 0 1008.4 0.1 67
2019-06-14 05:00:00 18.1 6 Oeste 21 Sudoeste 0 1009 1.1 65
2019-06-14 04:00:00 18.4 13 Oeste 39 Noroeste 0 1008.8 0.3 67
2019-06-14 03:00:00 18.5 21 Noroeste 50 Noroeste 0 1008.3 -1.5 66
2019-06-14 02:00:00 18.6 24 Norte 52 Noroeste 0 1007.9 -2 68
2019-06-14 01:00:00 18.6 26 Norte 46 Norte 0 1008.5 -1.1 68
2019-06-14 00:00:00 18.6 16 Noroeste 34 Norte 0 1009.8 0.4 73
2019-06-13 23:00:00 18.7 19 Norte 36 Norte 0 1009.9 0.5 75
2019-06-13 22:00:00 18.8 18 Norte 37 Norte 0 1009.6 0.1 72
2019-06-13 21:00:00 19.7 18 Norte 33 Nordeste 0 1009.4 -0.2 68
2019-06-13 20:00:00 20.8 21 Norte 36 Norte 0 1009.4 -0.7 60
2019-06-13 19:00:00 21.7 19 Norte 38 Norte 0 1009.5 -1 59
2019-06-13 18:00:00 22.2 21 Norte 36 Norte 0 1009.6 -1.4 58
2019-06-13 17:00:00 22.8 20 Norte 35 Nordeste 0 1010.1 -1.4 62
2019-06-13 16:00:00 23.2 18 Norte 35 Norte 0 1010.5 -1.1 61
2019-06-13 15:00:00 23.3 20 Norte 35 Norte 0 1011 -1.4 61
2019-06-13 14:00:00 23.2 21 Norte 33 Norte 0 1011.5 -0.2 59
2019-06-13 13:00:00 22.9 21 Nordeste 33 Norte 0 1011.6 -0.9 61
2019-06-13 12:00:00 22.6 20 Norte 31 Norte 0 1012.4 0.3 60
2019-06-13 11:00:00 20.9 17 Nordeste 29 Nordeste 0 1011.7 0 73
2019-06-13 10:00:00 21.8 12 Norte 25 Norte 0 1012.5 1.1 71
2019-06-13 09:00:00 20.7 11 Nordeste 17 Norte 0 1012.1 0.9 73
2019-06-13 08:00:00 19.3 9 Nordeste 17 Nordeste 0 1011.7 0.4 80
2019-06-13 07:00:00 18.8 8 Nordeste 18 Nordeste 0 1011.4 -0.3 82
2019-06-13 06:00:00 19 6 Nordeste 15 Nordeste 0 1011.2 -1.2 81
2019-06-13 05:00:00 19.2 3 Nordeste 13 Este 0 1011.3 -1.3 82
2019-06-13 04:00:00 19.4 5 Este 13 Este 0 1011.7 -1.2 82
2019-06-13 03:00:00 19.7 6 Sudeste 15 Este 0 1012.4 -0.5 81
2019-06-13 02:00:00 19.9 10 Este 21 Este 0 1012.6 -0.2 82
2019-06-13 01:00:00 19.9 9 Este 22 Este 0 1012.9 0.6 82
2019-06-13 00:00:00 20 9 Este 21 Sudeste 0 1012.9 0.6 80
2019-06-12 23:00:00 20.1 8 Sudeste 20 Este 0 1012.8 0.4 79
2019-06-12 22:00:00 20 12 Este 24 Este 0 1012.3 -0.1 79
2019-06-12 21:00:00 20.1 9 Este 23 Este 0 1012.3 -0.7 71
2019-06-12 20:00:00 21 9 Este 20 Este 0 1012.4 -0.9 64
2019-06-12 19:00:00 21.7 11 Este 24 Nordeste 0 1012.4 -1.3 60
2019-06-12 18:00:00 22 11 Este 23 Nordeste 0 1013 -1.1 57
2019-06-12 17:00:00 21.8 13 Nordeste 26 Nordeste 0 1013.3 -1.2 51
2019-06-12 16:00:00 21.7 12 Nordeste 27 Nordeste 0 1013.7 -0.9 47
2019-06-12 15:00:00 21.6 13 Nordeste 28 Este 0 1014.1 -0.7 48
2019-06-12 14:00:00 21.2 15 Nordeste 31 Nordeste 0 1014.5 -0.1 43
2019-06-12 13:00:00 21.9 17 Norte 28 Nordeste 0 1014.6 -0.1 44
2019-06-12 12:00:00 21.7 15 Norte 29 Nordeste 0 1014.8 0.2 48
2019-06-12 11:00:00 21.3 15 Norte 26 Nordeste 0 1014.6 0.6 50
2019-06-12 10:00:00 20.1 13 Norte 23 Norte 0 1014.7 1.2 55
2019-06-12 09:00:00 19.1 12 Norte 20 Norte 0 1014.6 1.6 56
2019-06-12 08:00:00 17.6 9 Norte 19 Norte 0 1014 1.6 61
2019-06-12 07:00:00 16.3 8 Norte 18 Norte 0 1013.5 0.8 65
2019-06-12 06:00:00 16.1 10 Norte 21 Norte 0 1013 0 65
2019-06-12 05:00:00 15.9 13 Norte 22 Noroeste 0 1012.4 -0.6 71
2019-06-12 04:00:00 15.8 10 Norte 17 Norte 0 1012.7 -0.6 73
2019-06-12 03:00:00 16.5 8 Norte 19 Norte 0 1013 -0.2 69
2019-06-12 02:00:00 16.3 10 Norte 23 Norte 0 1013 -0.4 71
2019-06-12 01:00:00 16.7 12 Nordeste 25 Norte 0 1013.3 0.7 69
2019-06-12 00:00:00 16.6 14 Nordeste 27 Nordeste 0.8 1013.2 0.7 70
2019-06-11 23:00:00 16.5 13 Norte 34 Norte 0 1013.4 1.5 69
2019-06-11 22:00:00 17.1 19 Norte 42 Norte 0 1012.6 1.8 67
2019-06-11 21:00:00 17.2 20 Nordeste 41 Norte 0 1012.5 2.2 70
2019-06-11 20:00:00 18.2 23 Norte 40 Norte 0 1011.9 2.2 61
2019-06-11 19:00:00 18.2 19 Norte 49 Norte 0 1010.8 1.6 62
2019-06-11 18:00:00 18.5 28 Nordeste 45 Nordeste 0 1010.3 1.6 64
2019-06-11 17:00:00 19.3 19 Nordeste 42 Norte 0 1009.7 1.5 64
2019-06-11 16:00:00 20.3 17 Nordeste 50 Nordeste 0 1009.2 1.3 63
2019-06-11 15:00:00 23.2 24 Norte 44 Norte 0 1008.7 0.2 57
2019-06-11 14:00:00 25.4 19 Norte 33 Noroeste 0 1008.2 -0.2 49
2019-06-11 13:00:00 25.8 14 Norte 34 Norte 0 1007.9 -0.8 48
2019-06-11 12:00:00 24.9 19 Norte 29 Norte 0 1008.5 -0.3 49
2019-06-11 11:00:00 24.5 14 Norte 26 Norte 0 1008.4 -0.3 53
2019-06-11 10:00:00 23.2 15 Noroeste 23 Noroeste 0 1008.7 0.1 60
2019-06-11 09:00:00 19.9 6 Sudoeste 15 Sudoeste 0 1008.8 0.2 77
2019-06-11 08:00:00 17.5 7 Oeste 14 Oeste 0 1008.7 -0.3 89
2019-06-11 07:00:00 15.2 6 Sudoeste 9 Sudoeste 0 1008.6 -0.8 91
2019-06-11 06:00:00 15.7 6 Sudoeste 9 Sudoeste 0 1008.6 -1.4 89
2019-06-11 05:00:00 16.1 7 Oeste 11 Oeste 0 1009 -1.3 89
2019-06-11 04:00:00 17 2 Este 9 Nordeste 0 1009.4 -1.2 86
2019-06-11 03:00:00 18.5 8 Nordeste 12 Sur 0 1010 -0.9 86
2019-06-11 02:00:00 19.1 6 Noroeste 12 Noroeste 0 1010.3 -0.4 71
2019-06-11 01:00:00 19.5 4 Noroeste 22 Sudoeste 0 1010.6 0.3 66
2019-06-11 00:00:00 20.6 8 Sudoeste 29 Oeste 0 1010.9 0.6 65
2019-06-10 23:00:00 20.1 4 Oeste 19 Oeste 0 1010.7 0.2 74
2019-06-10 22:00:00 20.7 10 Oeste 24 Sur 0 1010.3 -0.3 73
2019-06-10 21:00:00 21 12 Sudoeste 27 Sudoeste 0 1010.3 -0.6 78
2019-06-10 20:00:00 22.2 11 Sur 26 Sudeste 0 1010.5 -1 69
2019-06-10 19:00:00 24.2 13 Sur 27 Sudeste 0 1010.6 -1.3 59
2019-06-10 18:00:00 25.1 15 Sur 23 Este 0 1010.9 -1.4 53
2019-06-10 17:00:00 24 12 Este 23 Este 0 1011.5 -0.9 55
2019-06-10 16:00:00 23.8 12 Este 27 Nordeste 0 1011.9 -1 58
2019-06-10 15:00:00 24.3 14 Nordeste 29 Nordeste 0 1012.3 -0.7 59
2019-06-10 14:00:00 24.1 17 Nordeste 26 Nordeste 0 1012.4 -0.6 58
2019-06-10 13:00:00 24.3 14 Nordeste 32 Norte 0 1012.9 0 55
2019-06-10 12:00:00 23.9 19 Norte 32 Nordeste 0 1013 0.3 52
2019-06-10 11:00:00 23.7 18 Norte 34 Norte 0 1013 0.9 39
2019-06-10 10:00:00 23.8 13 Noroeste 26 Noroeste 0 1012.9 1 43
2019-06-10 09:00:00 21.2 14 Noroeste 25 Noroeste 0 1012.7 1.2 57
2019-06-10 08:00:00 19.9 13 Norte 23 Noroeste 0 1012.1 0.8 66
2019-06-10 07:00:00 18.7 13 Norte 26 Norte 0 1011.9 0.7 66
2019-06-10 06:00:00 18.3 13 Norte 23 Norte 0 1011.5 0.1 83
2019-06-10 05:00:00 17.7 4 Nordeste 14 Sur 0 1011.3 -0.3 86
2019-06-10 04:00:00 17.9 5 Oeste 11 Sudoeste 0 1011.2 -0.9 91
2019-06-10 03:00:00 18.4 7 Sudoeste 13 Sudoeste 0 1011.4 -0.8 89
2019-06-10 02:00:00 18.9 8 Oeste 19 Sudoeste 0 1011.6 -0.1 87
2019-06-10 01:00:00 19 6 Oeste 11 Sudoeste 0 1012.1 1 81
2019-06-10 00:00:00 20 3 Sudoeste 27 Sudoeste 0 1012.2 1.3 72
2019-06-09 23:00:00 21.4 15 Sudoeste 36 Sudoeste 0 1011.7 0.5 68
2019-06-09 22:00:00 21.6 19 Oeste 31 Oeste 0 1011.1 -0.3 66
2019-06-09 21:00:00 22.6 12 Sudoeste 26 Sudoeste 0 1010.9 -1.3 66
2019-06-09 20:00:00 23.8 13 Sudoeste 30 Sudoeste 0 1011.2 -1.6 62
2019-06-09 19:00:00 24.4 16 Sudoeste 31 Sudoeste 0 1011.4 -2 58
2019-06-09 18:00:00 23.7 13 Sur 28 Sur 0 1012.2 -1.9 60
2019-06-09 17:00:00 22.9 12 Sur 20 Sur 0 1012.8 -1.3 57
2019-06-09 16:00:00 23 10 Sur 21 Sudoeste 0 1013.4 -1.3 57
2019-06-09 15:00:00 23.8 10 Sur 18 Sudeste 0 1014.1 -0.8 49
2019-06-09 14:00:00 25.3 8 Este 15 Norte 0 1014.1 -1 22
2019-06-09 13:00:00 24.7 14 Norte 21 Noroeste 0 1014.7 -0.4 24
2019-06-09 12:00:00 23.6 12 Norte 19 Norte 0 1014.9 0 27
2019-06-09 11:00:00 24.1 6 Oeste 16 Noroeste 0 1015.1 -0.1 28
2019-06-09 10:00:00 21.2 7 Sudoeste 20 Norte 0 1015.1 0.7 41
2019-06-09 09:00:00 19.5 7 Oeste 23 Noroeste 0 1014.9 0.4 49
2019-06-09 08:00:00 19.2 11 Oeste 33 Noroeste 0 1015.2 0.7 46
2019-06-09 07:00:00 18.9 11 Noroeste 29 Oeste 0 1014.4 -1.3 52
2019-06-09 06:00:00 18.9 12 Noroeste 39 Noroeste 0 1014.5 -2.2 55
2019-06-09 05:00:00 18.2 7 Sur 31 Noroeste 0 1014.5 -3.2 66
2019-06-09 04:00:00 18.2 13 Oeste 32 Noroeste 0 1015.7 -2.1 68
2019-06-09 03:00:00 18.3 15 Noroeste 33 Noroeste 0 1016.7 -1.4 69
2019-06-09 02:00:00 18.4 14 Noroeste 37 Norte 0 1017.7 -0.5 70
2019-06-09 01:00:00 18.6 19 Norte 40 Norte 0 1017.8 -0.1 70
2019-06-09 00:00:00 18.7 25 Norte 43 Noroeste 0 1018.1 0.2 70
2019-06-08 23:00:00 18.8 20 Norte 41 Norte 0 1018.2 -0.5 72
2019-06-08 22:00:00 18.9 19 Norte 41 Noroeste 0 1017.9 -0.8 72
2019-06-08 21:00:00 19.6 18 Norte 36 Norte 0 1017.9 -1.1 69
2019-06-08 20:00:00 20.7 19 Norte 34 Norte 0 1018.7 -0.6 65
2019-06-08 19:00:00 21.9 13 Norte 35 Nordeste 0 1018.7 -1.2 60
2019-06-08 18:00:00 23 17 Norte 32 Nordeste 0 1019 -1.5 56
2019-06-08 17:00:00 23.2 19 Norte 33 Norte 0 1019.3 -1.8 55
2019-06-08 16:00:00 23.4 19 Norte 36 Nordeste 0 1019.9 -1.5 53
2019-06-08 15:00:00 23.2 21 Norte 36 Nordeste 0 1020.5 -0.5 57
2019-06-08 14:00:00 23.4 22 Norte 37 Norte 0 1021.1 0.3 55
2019-06-08 13:00:00 24.1 19 Norte 36 Nordeste 0 1021.4 1.1 55
2019-06-08 12:00:00 23.2 21 Norte 36 Norte 0 1021 1 59
2019-06-08 11:00:00 23.2 18 Norte 30 Norte 0 1020.8 1.5 62
2019-06-08 10:00:00 21.5 17 Norte 27 Norte 0 1020.3 1.3 70
2019-06-08 09:00:00 21.6 17 Norte 28 Norte 0 1020 2 71
2019-06-08 08:00:00 20.3 15 Norte 26 Norte 0 1019.3 1.4 81
2019-06-08 07:00:00 19.1 14 Norte 32 Norte 0 1019 1.3 82
2019-06-08 06:00:00 15.3 5 Oeste 9 Oeste 0 1018 -0.1 78
2019-06-08 05:00:00 15.7 5 Sudoeste 16 Oeste 0 1017.9 0.3 70
2019-06-08 04:00:00 15.9 10 Oeste 15 Oeste 0 1017.7 0.7 71
2019-06-08 03:00:00 17.6 4 Sur 12 Oeste 0 1018.1 1.5 62
2019-06-08 02:00:00 19.4 4 Sudeste 20 Norte 0 1017.6 1.2 54
2019-06-08 01:00:00 18.7 6 Oeste 15 Oeste 0 1017 1.4 54
2019-06-08 00:00:00 20.4 8 Oeste 17 Sudoeste 0 1016.6 1.6 49
2019-06-07 23:00:00 21 8 Sudoeste 16 Sudoeste 0 1016.4 1.9 47
2019-06-07 22:00:00 21.6 9 Sudoeste 14 Sudoeste 0 1015.6 1.8 57
2019-06-07 21:00:00 23.7 9 Sudoeste 16 Sur 0 1015 1.5 52
2019-06-07 20:00:00 26 11 Sur 22 Sudeste 0 1014.5 0.9 35
2019-06-07 19:00:00 27.6 10 Sur 24 Sur 0 1013.8 0.3 29
2019-06-07 18:00:00 28.3 9 Sur 22 Sur 0 1013.5 0.2 27
2019-06-07 17:00:00 27.9 13 Sur 24 Sudeste 0 1013.6 0.4 31
2019-06-07 16:00:00 28.4 10 Sudeste 22 Sur 0 1013.5 0.3 31
2019-06-07 15:00:00 27.4 12 Sudeste 23 Sur 0 1013.3 0.3 37
2019-06-07 14:00:00 27.5 13 Sudeste 24 Sur 0 1013.2 0.5 34
2019-06-07 13:00:00 26.4 10 Sudeste 20 Este 0 1013.2 1 41
2019-06-07 12:00:00 25.1 6 Sudeste 22 Nordeste 0 1013 1.1 49
2019-06-07 11:00:00 22.8 10 Nordeste 17 Nordeste 0 1012.7 1.6 62
2019-06-07 10:00:00 22.7 3 Sur 9 Oeste 0 1012.2 1.9 58
2019-06-07 09:00:00 19 5 Sudoeste 10 Oeste 0 1011.9 2 70
2019-06-07 08:00:00 15 6 Sudoeste 10 Oeste 0 1011.1 1.7 83
2019-06-07 07:00:00 13.6 4 Oeste 10 Oeste 0 1010.3 0.8 87
2019-06-07 06:00:00 13.7 3 Noroeste 11 Sur 0 1009.9 0.4 83
2019-06-07 05:00:00 15.1 6 Sudoeste 10 Sudoeste 0 1009.4 -0.4 81
2019-06-07 04:00:00 17 4 Noroeste 15 Sudoeste 0 1009.5 -0.6 74
2019-06-07 03:00:00 17.8 10 Sudoeste 21 Sudoeste 0 1009.5 -0.8 79
2019-06-07 02:00:00 18.7 13 Sudoeste 24 Sudoeste 0 1009.8 -0.4 80
2019-06-07 01:00:00 19 15 Sudoeste 26 Sudoeste 0 1010.1 0.4 78
2019-06-07 00:00:00 18.9 10 Sudoeste 26 Sudoeste 0 1010.3 0.8 78
2019-06-06 23:00:00 19.2 12 Sur 24 Sur 0 1010.2 0.6 76
2019-06-06 22:00:00 19.6 13 Sur 21 Sur 0 1009.7 -0.1 72
2019-06-06 21:00:00 21 13 Sur 28 Sudeste 0 1009.5 -1 67
2019-06-06 20:00:00 23.1 12 Sur 27 Sur 0 1009.6 -1.5 58
2019-06-06 19:00:00 24.5 13 Sur 24 Sur 0 1009.8 -2.1 56
2019-06-06 18:00:00 25.3 12 Sur 27 Sur 0 1010.5 -1.8 52
2019-06-06 17:00:00 25.6 12 Sudeste 28 Sur 0 1011.1 -1.5 51
2019-06-06 16:00:00 25.9 14 Sudeste 30 Sur 0 1011.9 -1 52
2019-06-06 15:00:00 25 13 Este 23 Sudeste 0 1012.3 -0.8 56
2019-06-06 14:00:00 23.8 12 Este 22 Nordeste 0 1012.6 -0.5 64
2019-06-06 13:00:00 24.6 9 Este 22 Este 0 1012.9 -0.3 60
2019-06-06 12:00:00 24.5 9 Nordeste 22 Este 0 1013.1 0.1 58
2019-06-06 11:00:00 24.4 9 Nordeste 18 Norte 0 1013.1 0.4 57
2019-06-06 10:00:00 23.3 10 Norte 17 Norte 0 1013.2 1 56
2019-06-06 09:00:00 20 7 Sudoeste 12 Sudoeste 0 1013 0.9 59
2019-06-06 08:00:00 16.3 8 Sudoeste 14 Oeste 0 1012.7 1 68
2019-06-06 07:00:00 15.4 9 Sudoeste 15 Oeste 0 1012.2 0.4 73
2019-06-06 06:00:00 13.8 8 Sudoeste 11 Sudoeste 0 1012.1 0.3 74
2019-06-06 05:00:00 13.8 7 Sudoeste 10 Sudoeste 0 1011.7 -0.3 78
2019-06-06 04:00:00 14.8 8 Sudoeste 10 Sudoeste 0 1011.8 -0.1 80
2019-06-06 03:00:00 15.6 6 Sudoeste 12 Oeste 0 1011.8 0.1 84
2019-06-06 02:00:00 16.1 6 Sudoeste 12 Sudoeste 0 1012 0.8 85
2019-06-06 01:00:00 17.5 3 Sudoeste 8 Nordeste 0 1011.9 1.6 81
2019-06-06 00:00:00 18.9 2 Nordeste 10 Este 0 1011.7 2.2 80
2019-06-05 23:00:00 19.5 4 Nordeste 15 Este 0 1011.2 2.5 79
2019-06-05 22:00:00 21.1 9 Nordeste 17 Nordeste 0 1010.3 2.4 66
2019-06-05 21:00:00 23.5 5 Sur 14 Sur 0 1009.5 1.6 40
2019-06-05 20:00:00 25.3 10 Sur 26 Oeste 0 1008.7 0.8 33
2019-06-05 19:00:00 29.9 14 Noroeste 31 Noroeste 0 1007.9 0.4 14
2019-06-05 18:00:00 30.3 14 Noroeste 42 Noroeste 0 1007.9 0.6 14
2019-06-05 17:00:00 29.4 18 Noroeste 44 Noroeste 0 1007.9 0.7 14
2019-06-05 16:00:00 29.4 19 Noroeste 41 Noroeste 0 1007.5 0.7 13
2019-06-05 15:00:00 30.2 18 Oeste 47 Noroeste 0 1007.3 0.7 13
2019-06-05 14:00:00 27.9 10 Sudeste 22 Sur 0 1007.2 0.7 41
2019-06-05 13:00:00 26.6 11 Sudeste 21 Sudeste 0 1006.8 0.5 47
2019-06-05 12:00:00 24.5 8 Este 16 Nordeste 0 1006.6 0.9 56
2019-06-05 11:00:00 23.1 10 Este 17 Este 0 1006.5 1 64
2019-06-05 10:00:00 22.4 9 Nordeste 17 Nordeste 0 1006.3 1 68
2019-06-05 09:00:00 20.5 3 Oeste 10 Oeste 0 1005.7 0.8 76
2019-06-05 08:00:00 15.9 7 Sudoeste 10 Sudoeste 0 1005.5 0 90
2019-06-05 07:00:00 15.4 5 Oeste 10 Oeste 0 1005.3 -0.3 91
2019-06-05 06:00:00 15.1 7 Sudoeste 11 Oeste 0 1004.9 -1.5 89
2019-06-05 05:00:00 16.1 7 Sudoeste 10 Oeste 0 1005.5 -1.3 88
2019-06-05 04:00:00 17.3 3 Noroeste 8 Noroeste 0 1005.6 -1.5 87
2019-06-05 03:00:00 18.3 4 Oeste 17 Sudoeste 0 1006.4 -0.8 87
2019-06-05 02:00:00 18.3 2 Nordeste 8 Oeste 0 1006.8 -0.4 85
2019-06-05 01:00:00 19 0 Calma 12 Sudoeste 0 1007.1 0.6 80
2019-06-05 00:00:00 19.6 8 Sudoeste 26 Sudoeste 0 1007.2 0.6 79
2019-06-04 23:00:00 20.3 12 Sudoeste 22 Sudoeste 0 1007.2 0.3 69
2019-06-04 22:00:00 20.4 5 Sudoeste 27 Sudoeste 0 1006.5 -0.8 69
2019-06-04 21:00:00 22 15 Sudoeste 39 Sudoeste 0 1006.6 -1 65
2019-06-04 20:00:00 23.5 18 Sudoeste 34 Sur 0 1006.9 -1.7 58
2019-06-04 19:00:00 25.1 20 Sur 36 Sur 0 1007.3 -1.9 51
2019-06-04 18:00:00 25.9 15 Sur 37 Sur 0 1007.6 -2 52
2019-06-04 17:00:00 26.4 11 Sur 37 Sudoeste 0 1008.6 -1.9 51
2019-06-04 16:00:00 26.3 16 Sudoeste 40 Sudoeste 0 1009.2 -1.8 53
2019-06-04 15:00:00 27.2 12 Sudoeste 32 Sur 0 1009.6 -1.9 50
2019-06-04 14:00:00 26.6 13 Sudoeste 30 Sudoeste 0 1010.5 -1.1 55
2019-06-04 13:00:00 25.5 16 Sudoeste 31 Sudoeste 0 1011 -0.8 55
2019-06-04 12:00:00 26.4 12 Sur 22 Sur 0 1011.5 -0.3 46
2019-06-04 11:00:00 24.5 8 Sur 22 Sudoeste 0 1011.6 0 51
2019-06-04 10:00:00 22.6 13 Sudoeste 27 Sudoeste 0 1011.8 0.4 65
2019-06-04 09:00:00 21.2 10 Sudoeste 22 Sudoeste 0 1011.8 0.4 77
2019-06-04 08:00:00 18.5 5 Sudoeste 9 Oeste 0 1011.6 -0.4 88
2019-06-04 07:00:00 16.1 7 Sudoeste 12 Oeste 0 1011.4 -1 92
2019-06-04 06:00:00 15.5 5 Sudoeste 8 Oeste 0 1011.4 -1.7 91
2019-06-04 05:00:00 15.8 6 Sudoeste 9 Oeste 0 1012 -1.7 91
2019-06-04 04:00:00 16 3 Sudoeste 7 Sudoeste 0 1012.4 -1.8 90
2019-06-04 03:00:00 17.9 2 Sur 8 Oeste 0 1013.1 -1.3 89
2019-06-04 02:00:00 18.9 4 Sudoeste 10 Oeste 0 1013.7 -0.7 87
2019-06-04 01:00:00 19.1 6 Oeste 16 Sudoeste 0 1014.2 0.3 86
2019-06-04 00:00:00 19.5 8 Sudoeste 17 Sudoeste 0 1014.4 0.8 85
2019-06-03 23:00:00 19.8 10 Sudoeste 21 Sudoeste 0 1014.4 0.8 82
2019-06-03 22:00:00 20.3 9 Sudoeste 22 Sudoeste 0 1013.9 0 78
2019-06-03 21:00:00 21.3 10 Sudoeste 29 Sur 0 1013.6 -0.8 71
2019-06-03 20:00:00 23.6 10 Sudoeste 31 Sur 0 1013.6 -1.1 56
2019-06-03 19:00:00 23.7 15 Sudoeste 37 Sur 0 1013.9 -1.3 49
2019-06-03 18:00:00 26.9 8 Sudoeste 37 Sudoeste 0 1014.4 -1.4 43
2019-06-03 17:00:00 26.9 14 Sudoeste 37 Sur 0 1014.7 -1.6 37
2019-06-03 16:00:00 26.8 15 Sur 38 Sur 0 1015.2 -1.5 33
2019-06-03 15:00:00 26.5 18 Sur 37 Sur 0 1015.8 -1.2 33
2019-06-03 14:00:00 26.1 19 Sudoeste 36 Sur 0 1016.3 -0.6 31
2019-06-03 13:00:00 27.1 13 Sur 32 Sur 0 1016.7 -0.6 30
2019-06-03 12:00:00 26.3 15 Sur 26 Sur 0 1017 -0.3 30
2019-06-03 11:00:00 25 5 Sudeste 12 Sudoeste 0 1016.9 -0.4 38
2019-06-03 10:00:00 23.5 6 Este 12 Este 0 1017.3 0.8 52
2019-06-03 09:00:00 19.5 8 Oeste 10 Oeste 0 1017.3 1.1 51
2019-06-03 08:00:00 14.9 8 Sudoeste 10 Sudoeste 0 1017.3 0.9 75
2019-06-03 07:00:00 13.2 3 Oeste 8 Oeste 0 1016.5 -0.3 83
2019-06-03 06:00:00 14.7 6 Sudoeste 12 Oeste 0 1016.2 -0.9 83
2019-06-03 05:00:00 15.6 6 Sudoeste 12 Oeste 0 1016.4 -1.1 80
2019-06-03 04:00:00 16.1 8 Oeste 12 Oeste 0 1016.8 -1 80
2019-06-03 03:00:00 18 7 Oeste 14 Oeste 0 1017.1 -0.8 76
2019-06-03 02:00:00 17.8 8 Oeste 12 Oeste 0 1017.5 0 74
2019-06-03 01:00:00 18.1 7 Sudoeste 10 Sudoeste 0 1017.8 0.7 68
2019-06-03 00:00:00 18.3 5 Oeste 10 Oeste 0 1017.9 1.1 71
2019-06-02 23:00:00 18.9 6 Sudoeste 20 Sudoeste 0 1017.5 1 72
2019-06-02 22:00:00 19.7 8 Sudoeste 24 Sur 0 1017.1 0.3 68
2019-06-02 21:00:00 22 12 Sudoeste 23 Sur 0 1016.8 -0.3 51
2019-06-02 20:00:00 24.9 10 Sur 22 Sur 0 1016.5 -0.9 41
2019-06-02 19:00:00 26 12 Sur 22 Sudeste 0 1016.8 -1 31
2019-06-02 18:00:00 27.2 12 Sur 26 Sur 0 1017.1 -1 29
2019-06-02 17:00:00 27 16 Sudeste 27 Sudeste 0 1017.4 -1.2 27
2019-06-02 16:00:00 27.4 14 Sudeste 29 Sur 0 1017.8 -1.2 28
2019-06-02 15:00:00 27.3 18 Sur 31 Sur 0 1018.1 -0.9 21
2019-06-02 14:00:00 27.3 12 Sudeste 24 Sur 0 1018.6 -0.5 28
2019-06-02 13:00:00 27.1 12 Sudeste 23 Sur 0 1019 -0.1 31
2019-06-02 12:00:00 26.6 13 Sudeste 21 Sudeste 0 1019 0.1 24
2019-06-02 11:00:00 23.4 9 Nordeste 13 Nordeste 0 1019.1 0.4 53
2019-06-02 10:00:00 22.5 6 Nordeste 12 Nordeste 0 1019.1 0.2 49
2019-06-02 09:00:00 18.6 3 Sudoeste 10 Sudoeste 0 1018.9 0.2 45
2019-06-02 08:00:00 13.6 8 Sudoeste 13 Sudoeste 0 1018.7 0 57
2019-06-02 07:00:00 10.3 9 Sudoeste 12 Sudoeste 0 1018.9 -0.2 66
2019-06-02 06:00:00 10.6 11 Sudoeste 13 Sudoeste 0 1018.7 -0.6 64
2019-06-02 05:00:00 12.9 5 Sudoeste 12 Oeste 0 1018.7 -0.9 54
2019-06-02 04:00:00 14.8 8 Oeste 13 Oeste 0 1019.1 -0.8 48
2019-06-02 03:00:00 15 9 Sudoeste 14 Sudoeste 0 1019.3 -0.8 50
2019-06-02 02:00:00 16.2 8 Oeste 13 Oeste 0 1019.6 -0.2 46
2019-06-02 01:00:00 16.5 7 Oeste 10 Oeste 0 1019.9 0.6 43
2019-06-02 00:00:00 17.5 8 Oeste 13 Oeste 0 1020.1 1.1 46
2019-06-01 23:00:00 18.3 7 Oeste 12 Oeste 0 1019.8 0.9 53
2019-06-01 22:00:00 19 6 Oeste 10 Sudoeste 0 1019.3 0.2 40
2019-06-01 21:00:00 23.2 5 Sudoeste 14 Sudeste 0 1019 -0.6 32
2019-06-01 20:00:00 25.3 8 Sur 17 Sur 0 1018.9 -0.9 23
2019-06-01 19:00:00 25.8 11 Sur 19 Sudeste 0 1019.1 -1.2 26
2019-06-01 18:00:00 26.7 10 Sudeste 20 Sur 0 1019.6 -1.1 23
2019-06-01 17:00:00 26.9 12 Sudeste 22 Sudeste 0 1019.8 -1.5 26
2019-06-01 16:00:00 27 13 Sudeste 23 Sudeste 0 1020.3 -1.3 24
2019-06-01 15:00:00 26.5 10 Sudeste 23 Sudeste 0 1020.7 -1.1 31
2019-06-01 14:00:00 24.4 11 Este 21 Este 0 1021.3 -0.5 46
2019-06-01 13:00:00 23.4 10 Este 21 Nordeste 0 1021.6 -0.2 57
2019-06-01 12:00:00 22.3 11 Este 19 Nordeste 0 1021.8 0.2 60
2019-06-01 11:00:00 22.5 8 Este 13 Este 0 1021.8 0.4 52
2019-06-01 10:00:00 21.4 7 Nordeste 12 Nordeste 0 1021.8 0.6 56
2019-06-01 09:00:00 17.9 3 Sudoeste 12 Oeste 0 1021.6 0.5 50
2019-06-01 08:00:00 13.1 8 Sudoeste 12 Oeste 0 1021.4 0.3 66
2019-06-01 07:00:00 10.6 9 Sudoeste 13 Oeste 0 1021.2 -0.1 71
2019-06-01 06:00:00 10.7 8 Sudoeste 11 Sudoeste 0 1021.1 -0.4 73
2019-06-01 05:00:00 11.9 9 Sudoeste 12 Oeste 0 1021.1 -0.7 71
2019-06-01 04:00:00 12.6 7 Sudoeste 12 Oeste 0 1021.3 -1 71
2019-06-01 03:00:00 13.1 7 Sudoeste 10 Oeste 0 1021.5 -0.8 71
2019-06-01 02:00:00 14.2 6 Oeste 9 Oeste 0 1021.8 -0.3 70
2019-06-01 01:00:00 15.3 6 Oeste 9 Oeste 0 1022.3 0.6 66
2019-06-01 00:00:00 16.2 7 Oeste 10 Oeste 0 1022.3 0.9 66
2019-05-31 23:00:00 17.6 7 Oeste 10 Oeste 0 1022.1 0.7 59
2019-05-31 22:00:00 19.2 5 Sur 12 Sudeste 0 1021.7 0 47
2019-05-31 21:00:00 22.6 7 Sur 15 Sudeste 0 1021.4 -0.5 37
2019-05-31 20:00:00 24.6 8 Sur 18 Sur 0 1021.4 -1 32
2019-05-31 19:00:00 25.5 8 Sur 19 Sudeste 0 1021.7 -1.1 28
2019-05-31 18:00:00 26 10 Sudeste 21 Sur 0 1021.9 -1.3 30
2019-05-31 17:00:00 25.6 15 Sur 27 Sur 0 1022.4 -1.1 31
2019-05-31 16:00:00 25.5 14 Sur 26 Sur 0 1022.8 -0.9 33
2019-05-31 15:00:00 25.1 18 Sudeste 26 Sur 0 1023.2 -0.7 40
2019-05-31 14:00:00 25.3 11 Sudeste 23 Sur 0 1023.5 -0.3 40
2019-05-31 13:00:00 25.1 11 Sudeste 21 Sudeste 0 1023.7 0.4 47
2019-05-31 12:00:00 22.3 12 Nordeste 18 Nordeste 0 1023.9 0.7 60
2019-05-31 11:00:00 22.1 9 Este 17 Este 0 1023.8 0.7 54
2019-05-31 10:00:00 22.3 5 Este 12 Este 0 1023.3 0.6 54
2019-05-31 09:00:00 19.4 2 Oeste 9 Oeste 0 1023.2 0.4 55
2019-05-31 08:00:00 14.6 6 Oeste 15 Oeste 0 1023.1 0.3 72
2019-05-31 07:00:00 11.9 9 Oeste 14 Oeste 0 1022.7 -0.1 79
2019-05-31 06:00:00 11.7 6 Sudoeste 12 Sudoeste 0 1022.8 -0.6 83
2019-05-31 05:00:00 12.2 5 Sudoeste 12 Oeste 0 1022.8 -0.8 82
2019-05-31 04:00:00 13.8 7 Sudoeste 10 Sudoeste 0 1022.8 -0.9 78
2019-05-31 03:00:00 15.9 0 Calma 17 Sudoeste 0 1023.4 -0.3 69
2019-05-31 02:00:00 17.2 7 Sudoeste 22 Oeste 0 1023.6 0.1 64
2019-05-31 01:00:00 17.3 6 Oeste 21 Sudoeste 0 1023.7 0.7 64
2019-05-31 00:00:00 17.9 10 Sudoeste 25 Sudoeste 0 1023.7 0.8 63
2019-05-30 23:00:00 17.9 9 Sudoeste 21 Sudoeste 0 1023.5 1 62
2019-05-30 22:00:00 18.4 10 Sudoeste 28 Sudoeste 0 1023 0.3 59
2019-05-30 21:00:00 20 12 Sudoeste 31 Sur 0 1022.9 -0.2 55
2019-05-30 20:00:00 21.7 15 Sur 30 Sur 0 1022.5 -0.9 46
2019-05-30 19:00:00 22.9 14 Sur 32 Sur 0 1022.7 -0.8 44
2019-05-30 18:00:00 23.5 18 Sur 34 Sudoeste 0 1023.1 -0.7 37
2019-05-30 17:00:00 24.6 16 Sur 32 Sur 0 1023.4 -0.5 32
2019-05-30 16:00:00 24.9 15 Sur 32 Sur 0 1023.5 -0.8 34
2019-05-30 15:00:00 25.1 15 Sur 27 Sur 0 1023.8 -0.5 36
2019-05-30 14:00:00 24.7 14 Sur 23 Sudeste 0 1023.9 -0.4 39
2019-05-30 13:00:00 25 13 Sur 23 Sur 0 1024.3 0.1 41
2019-05-30 12:00:00 24.1 6 Sudoeste 19 Sudoeste 0 1024.3 0.3 43
2019-05-30 11:00:00 22.6 9 Sur 16 Sur 0 1024.3 0.7 46
2019-05-30 10:00:00 20.5 10 Sudoeste 17 Sudoeste 0 1024.2 1 57
2019-05-30 09:00:00 18 4 Oeste 12 Sudoeste 0 1024 1.1 66
2019-05-30 08:00:00 14 8 Oeste 13 Oeste 0 1023.6 0.8 74
2019-05-30 07:00:00 12.3 9 Oeste 13 Oeste 0 1023.2 0.6 85
2019-05-30 06:00:00 12.7 8 Oeste 10 Sudoeste 0 1022.9 0.4 90
2019-05-30 05:00:00 13.2 4 Oeste 7 Oeste 0 1022.8 0.1 89
2019-05-30 04:00:00 13.8 4 Sudoeste 5 Sudoeste 0 1022.6 -0.2 86
2019-05-30 03:00:00 14.7 3 Sudoeste 20 Oeste 0 1022.5 -0.1 82
2019-05-30 02:00:00 15.1 5 Sudoeste 12 Sudoeste 0 1022.7 0.4 82
2019-05-30 01:00:00 15.5 8 Oeste 11 Sudoeste 0 1022.8 1.6 80
2019-05-30 00:00:00 16.5 6 Oeste 14 Oeste 0 1022.6 2.1 73
2019-05-29 23:00:00 16.1 5 Oeste 10 Oeste 0 1022.3 2.5 68
2019-05-29 22:00:00 16.9 3 Sur 10 Sur 0 1021.2 1.5 62
2019-05-29 21:00:00 19.9 5 Sur 12 Sudeste 0 1020.5 0.5 44
2019-05-29 20:00:00 21.5 6 Este 14 Este 0 1019.8 -0.3 38
2019-05-29 19:00:00 21.8 5 Este 21 Este 0 1019.7 -0.6 30
2019-05-29 18:00:00 21.2 12 Este 21 Este 0 1020 -0.4 43
2019-05-29 17:00:00 21.4 11 Este 22 Nordeste 0 1020.1 -0.4 40
2019-05-29 16:00:00 22.3 9 Este 24 Este 0 1020.3 -0.4 37
2019-05-29 15:00:00 21.4 13 Este 25 Nordeste 0 1020.4 -0.2 42
2019-05-29 14:00:00 21.2 12 Nordeste 25 Este 0 1020.5 0.2 43
2019-05-29 13:00:00 21.7 14 Norte 29 Nordeste 0 1020.7 0.8 36
2019-05-29 12:00:00 21.1 16 Norte 33 Nordeste 0 1020.6 1 38
2019-05-29 11:00:00 20.5 21 Norte 37 Nordeste 0 1020.3 1.3 40
2019-05-29 10:00:00 19.6 22 Norte 39 Norte 0 1019.9 1.6 40
2019-05-29 09:00:00 19.1 20 Norte 39 Norte 0 1019.6 1.7 42
2019-05-29 08:00:00 18.9 17 Norte 45 Norte 0 1019 1.7 45
2019-05-29 07:00:00 17.3 12 Norte 31 Nordeste 0 1018.3 1.2 52
2019-05-29 06:00:00 17.4 13 Nordeste 26 Norte 0 1017.9 1.1 51
2019-05-29 05:00:00 16.6 9 Norte 14 Norte 0 1017.3 0.6 67
2019-05-29 04:00:00 16.7 10 Norte 18 Norte 0 1017.1 0.7 83
2019-05-29 03:00:00 13.4 4 Sudoeste 11 Sudoeste 0 1016.8 0.7 79
2019-05-29 02:00:00 13.9 10 Oeste 13 Sudoeste 0 1016.7 1 76
2019-05-29 01:00:00 14.2 8 Sudoeste 11 Sudoeste 0 1016.4 1.4 76
2019-05-29 00:00:00 15.2 6 Sudoeste 10 Oeste 0 1016.1 2 74
2019-05-28 23:00:00 16.9 3 Oeste 8 Este 0 1015.7 2.1 71
2019-05-28 22:00:00 19.3 4 Este 9 Nordeste 0 1015 2 58
2019-05-28 21:00:00 20.6 4 Nordeste 11 Este 0 1014.1 1.6 47
2019-05-28 20:00:00 21.3 8 Este 19 Este 0 1013.6 1.2 51
2019-05-28 19:00:00 21.6 11 Este 21 Este 0 1013 0.2 54
2019-05-28 18:00:00 21.9 9 Este 25 Este 0 1012.5 -0.6 55
2019-05-28 17:00:00 22.2 10 Este 23 Nordeste 0 1012.4 -0.9 53
2019-05-28 16:00:00 22 12 Nordeste 22 Nordeste 0 1012.8 -0.9 53
2019-05-28 15:00:00 22.2 15 Nordeste 24 Nordeste 0 1013.1 -0.4 35
2019-05-28 14:00:00 22.8 13 Nordeste 23 Nordeste 0 1013.3 -0.1 38
2019-05-28 13:00:00 21.6 16 Nordeste 24 Nordeste 0 1013.7 0.5 45
2019-05-28 12:00:00 21.8 14 Nordeste 22 Nordeste 0 1013.5 0.9 44
2019-05-28 11:00:00 21.3 11 Nordeste 22 Norte 0 1013.4 1.7 57
2019-05-28 10:00:00 21.6 15 Norte 26 Nordeste 0 1013.2 2.1 51
2019-05-28 09:00:00 21.3 12 Nordeste 22 Nordeste 0 1012.6 1.9 64
2019-05-28 08:00:00 18 7 Noroeste 12 Norte 0 1011.7 1 78
2019-05-28 07:00:00 15.6 5 Sudoeste 8 Sudoeste 0 1011.1 0.3 80
2019-05-28 06:00:00 16.7 4 Sudoeste 13 Noroeste 0 1010.7 0.1 78
2019-05-28 05:00:00 16.8 6 Oeste 13 Noroeste 0 1010.7 -0.3 84
2019-05-28 04:00:00 17.4 4 Oeste 19 Sudoeste 0 1010.8 -0.4 84
2019-05-28 03:00:00 18 10 Oeste 19 Oeste 0 1010.6 -0.1 89
2019-05-28 02:00:00 18.2 4 Sur 19 Norte 0 1011 0.6 88
2019-05-28 01:00:00 18.1 4 Sudoeste 15 Noroeste 0 1011.2 1.2 84
2019-05-28 00:00:00 18.6 8 Sudoeste 19 Sudoeste 0 1010.7 0.9 82
2019-05-27 23:00:00 19.4 7 Sudoeste 22 Sudoeste 0 1010.4 1.3 80
2019-05-27 22:00:00 19.6 13 Sudoeste 21 Sudoeste 0 1010 0.9 77
2019-05-27 21:00:00 21.5 8 Sudoeste 17 Sudoeste 0 1009.8 0.5 66
2019-05-27 20:00:00 22.2 8 Sudoeste 28 Sur 0 1009.1 -0.8 62
2019-05-27 19:00:00 23.3 17 Sur 32 Sudoeste 0 1009.1 -1.3 58
2019-05-27 18:00:00 24.8 13 Sur 31 Sudoeste 0 1009.3 -1.7 52
2019-05-27 17:00:00 25.5 15 Sur 27 Sudoeste 0 1009.9 -1.5 46
2019-05-27 16:00:00 25.9 14 Sur 25 Sur 0 1010.4 -1.2 44
2019-05-27 15:00:00 26.3 12 Sur 22 Sur 0 1011 -0.9 40
2019-05-27 14:00:00 24.5 12 Sudeste 27 Este 0 1011.4 -0.7 49
2019-05-27 13:00:00 25.1 10 Sudeste 23 Sudeste 0 1011.6 -0.5 46
2019-05-27 12:00:00 25 7 Sudeste 17 Este 0 1011.9 -0.3 47
2019-05-27 11:00:00 23.4 5 Sudoeste 19 Sudeste 0 1012.1 -0.1 56
2019-05-27 10:00:00 21.9 5 Oeste 12 Oeste 0 1012.1 0.1 60
2019-05-27 09:00:00 19 5 Oeste 10 Oeste 0 1012.2 0.3 69
2019-05-27 08:00:00 14.6 7 Sudoeste 11 Oeste 0 1012.2 0 84
2019-05-27 07:00:00 12.1 5 Oeste 9 Oeste 0 1012 -0.7 90
2019-05-27 06:00:00 12.6 6 Sudoeste 10 Oeste 0 1011.9 -1.1 87
2019-05-27 05:00:00 13.6 7 Sudoeste 11 Oeste 0 1012.2 -1.2 88
2019-05-27 04:00:00 13.8 6 Sudoeste 12 Oeste 0 1012.7 -1.2 84
2019-05-27 03:00:00 13.8 7 Oeste 13 Oeste 0 1013 -1.1 84
2019-05-27 02:00:00 14.9 6 Oeste 13 Oeste 0 1013.4 -0.7 80
2019-05-27 01:00:00 16.1 6 Sudoeste 12 Oeste 0 1013.9 0.3 77
2019-05-27 00:00:00 16.5 7 Oeste 14 Oeste 0 1014.1 0.4 79
2019-05-26 23:00:00 18.2 7 Oeste 15 Oeste 0 1014.1 0.4 70
2019-05-26 22:00:00 18.4 7 Oeste 17 Sudoeste 0 1013.6 -0.4 72
2019-05-26 21:00:00 19.8 9 Sudoeste 22 Sudoeste 0 1013.7 -0.8 70
2019-05-26 20:00:00 21.7 11 Sudoeste 22 Sudoeste 0 1013.7 -1.1 59
2019-05-26 19:00:00 22.4 11 Sudoeste 18 Sudoeste 0 1014 -0.9 55
2019-05-26 18:00:00 20.9 9 Sudeste 17 Este 0 1014.5 -0.5 60
2019-05-26 17:00:00 20.4 11 Este 24 Este 0 1014.8 -0.6 59
2019-05-26 16:00:00 21.3 12 Este 24 Este 0 1014.9 -0.7 54
2019-05-26 15:00:00 21.6 13 Este 25 Este 0 1015 -0.8 56
2019-05-26 14:00:00 20.7 13 Nordeste 23 Nordeste 0 1015.4 -0.3 64
2019-05-26 13:00:00 23.3 11 Norte 25 Nordeste 0 1015.6 -0.2 48
2019-05-26 12:00:00 22.5 15 Norte 26 Norte 0 1015.8 -0.2 49
2019-05-26 11:00:00 22.3 14 Norte 29 Norte 0 1015.7 0 46
2019-05-26 10:00:00 21.2 14 Norte 22 Norte 0 1015.8 0.5 50
2019-05-26 09:00:00 18.5 3 Sudeste 10 Sudoeste 0 1016 0.7 65
2019-05-26 08:00:00 14.2 6 Sudoeste 13 Oeste 0 1015.7 0.3 79
2019-05-26 07:00:00 11.7 10 Sudoeste 15 Oeste 0 1015.3 -0.6 86
2019-05-26 06:00:00 12.9 9 Oeste 17 Oeste 0 1015.3 -1 81
2019-05-26 05:00:00 12.1 8 Oeste 12 Oeste 0 1015.4 -1.3 85
2019-05-26 04:00:00 12.3 8 Oeste 12 Oeste 0 1015.9 -1.1 86
2019-05-26 03:00:00 12.6 9 Sudoeste 13 Sudoeste 0 1016.3 -0.8 88
2019-05-26 02:00:00 13.1 7 Sudoeste 10 Oeste 0 1016.7 -0.1 85
2019-05-26 01:00:00 13.4 8 Sudoeste 11 Oeste 0 1017 0.8 86
2019-05-26 00:00:00 14 7 Sudoeste 10 Oeste 0 1017.1 1.3 83
2019-05-25 23:00:00 14.9 7 Sudoeste 9 Noroeste 0 1016.8 1.2 78
2019-05-25 22:00:00 16.7 5 Noroeste 14 Norte 0 1016.2 1 66
2019-05-25 21:00:00 18.3 8 Norte 18 Norte 0 1015.8 0.2 62
2019-05-25 20:00:00 19.5 10 Norte 20 Nordeste 0 1015.6 0.3 57
2019-05-25 19:00:00 20.8 10 Norte 24 Norte 0 1015.2 -0.3 54
2019-05-25 18:00:00 20.8 17 Norte 32 Norte 0 1015.6 -0.4 56
2019-05-25 17:00:00 21.6 16 Norte 32 Noroeste 0 1015.3 -0.9 52
2019-05-25 16:00:00 20.8 17 Noroeste 33 Noroeste 0 1015.5 -0.7 58
2019-05-25 15:00:00 19.1 15 Noroeste 29 Norte 0 1016 0.1 70
2019-05-25 14:00:00 16.9 15 Norte 31 Norte 0.4 1016.2 0.9 77
2019-05-25 13:00:00 15.8 20 Norte 41 Norte 1.2 1016.2 1.2 86
2019-05-25 12:00:00 15.2 19 Norte 45 Norte 1.4 1015.9 1.3 90
2019-05-25 11:00:00 15.7 21 Norte 43 Norte 0.6 1015.3 1.3 81
2019-05-25 10:00:00 15.5 21 Norte 37 Norte 0.2 1015 1.6 81
2019-05-25 09:00:00 15.6 14 Norte 35 Norte 1 1014.6 1.4 90
2019-05-25 08:00:00 15.3 20 Norte 39 Norte 6.8 1014 0.8 92
2019-05-25 07:00:00 15.3 11 Noroeste 25 Noroeste 0.4 1013.4 0 84
2019-05-25 06:00:00 15.1 7 Noroeste 23 Noroeste 0.8 1013.2 -0.3 86
2019-05-25 05:00:00 16.2 8 Norte 22 Noroeste 0 1013.2 -0.9 75
2019-05-25 04:00:00 16.6 11 Noroeste 19 Noroeste 0 1013.4 -0.9 75
2019-05-25 03:00:00 15.9 6 Oeste 21 Noroeste 0.2 1013.5 -0.7 83
2019-05-25 02:00:00 15.8 4 Noroeste 19 Norte 0 1014.1 -0.2 86
2019-05-25 01:00:00 16.4 9 Norte 19 Noroeste 0 1014.3 0.3 83
2019-05-25 00:00:00 15.6 3 Nordeste 6 Sudoeste 0 1014.2 0.4 87
2019-05-24 23:00:00 16 3 Sudoeste 13 Noroeste 0 1014.3 0.7 83
2019-05-24 22:00:00 15.9 5 Noroeste 21 Noroeste 0.2 1014 0.8 83
2019-05-24 21:00:00 16.3 7 Norte 17 Noroeste 0 1013.8 0.4 77
2019-05-24 20:00:00 16.5 5 Norte 19 Norte 0 1013.6 0.2 76
2019-05-24 19:00:00 16.4 14 Norte 28 Nordeste 0.2 1013.2 0.1 80
2019-05-24 18:00:00 17.7 17 Norte 31 Nordeste 0 1013.4 0.2 72
2019-05-24 17:00:00 17.4 13 Nordeste 24 Nordeste 0.2 1013.4 -0.1 72
2019-05-24 16:00:00 16.6 6 Este 21 Este 0.6 1013.1 -0.6 84
2019-05-24 15:00:00 17.1 10 Este 22 Nordeste 1 1013.2 -0.1 83
2019-05-24 14:00:00 18.9 12 Norte 25 Norte 0 1013.5 0.3 86
2019-05-24 13:00:00 19.6 9 Norte 19 Norte 0 1013.7 0.9 77
2019-05-24 12:00:00 19.1 11 Norte 18 Norte 0.2 1013.3 1.2 84
2019-05-24 11:00:00 18.9 9 Nordeste 21 Norte 0 1013.2 1 83
2019-05-24 10:00:00 18.9 9 Norte 17 Norte 0 1012.8 0.9 77
2019-05-24 09:00:00 18 3 Sur 8 Sur 0 1012.1 0.2 88
2019-05-24 08:00:00 16.8 3 Sur 7 Sudoeste 0 1012.2 0.6 86
2019-05-24 07:00:00 16.9 3 Oeste 11 Oeste 0 1011.9 -0.2 79
2019-05-24 06:00:00 17.4 6 Oeste 13 Norte 0 1011.9 -0.4 78
2019-05-24 05:00:00 16.9 3 Oeste 10 Sudoeste 0 1011.6 -1.2 73
2019-05-24 04:00:00 17 6 Sudoeste 8 Oeste 0 1012.1 -1.1 56
2019-05-24 03:00:00 17.6 3 Este 9 Oeste 0 1012.3 -0.9 51
2019-05-24 02:00:00 19.1 5 Oeste 23 Sur 0 1012.8 -0.4 45
2019-05-24 01:00:00 20.6 8 Sudoeste 31 Sudoeste 0 1013.2 0.1 40
2019-05-24 00:00:00 20.5 8 Sudoeste 20 Sudoeste 0 1013.2 0.2 43
2019-05-23 23:00:00 20.2 9 Oeste 15 Oeste 0 1013.2 0.1 49
2019-05-23 22:00:00 20.2 10 Sudoeste 24 Sudoeste 0 1013.1 -0.2 56
2019-05-23 21:00:00 21.3 14 Sudoeste 30 Sudoeste 0 1013 -0.7 52
2019-05-23 20:00:00 21.4 14 Sudoeste 31 Sudoeste 0 1013.1 -1.1 59
2019-05-23 19:00:00 22.5 15 Sudoeste 37 Sudoeste 0 1013.3 -1.3 54
2019-05-23 18:00:00 25.2 15 Sudoeste 37 Sur 0 1013.7 -1.2 38
2019-05-23 17:00:00 25.6 19 Sur 37 Sudoeste 0 1014.2 -0.9 32
2019-05-23 16:00:00 24.6 18 Sur 41 Sur 0 1014.6 -0.7 27
2019-05-23 15:00:00 26.5 18 Sur 41 Sur 0 1014.9 -1.2 27
2019-05-23 14:00:00 27.3 21 Sur 45 Sudoeste 0 1015.1 -1.3 21
2019-05-23 13:00:00 27.5 23 Sur 39 Sudoeste 0 1015.3 -1.2 20
2019-05-23 12:00:00 26.2 14 Sudoeste 34 Sudoeste 0 1016.1 -0.2 23
2019-05-23 11:00:00 22.3 10 Este 18 Este 0 1016.4 0.3 61
2019-05-23 10:00:00 23.7 4 Nordeste 10 Sudeste 0 1016.5 0.6 32
2019-05-23 09:00:00 20.3 3 Oeste 8 Oeste 0 1016.3 0.3 40
2019-05-23 08:00:00 17.3 5 Oeste 17 Oeste 0 1016.1 -0.3 49
2019-05-23 07:00:00 16.6 8 Sudoeste 21 Sudoeste 0 1015.9 -0.8 47
2019-05-23 06:00:00 16.4 7 Sudoeste 18 Sudoeste 0 1016 -1.1 55
2019-05-23 05:00:00 16.3 6 Oeste 13 Oeste 0 1016.4 -0.9 80
2019-05-23 04:00:00 15.9 8 Oeste 14 Oeste 0 1016.7 -0.5 89
2019-05-23 03:00:00 14.4 3 Sur 8 Sudoeste 0 1017.1 0.1 84
2019-05-23 02:00:00 15.6 3 Sudoeste 7 Sudoeste 0 1017.3 0.7 83
2019-05-23 01:00:00 17.2 3 Oeste 14 Sudoeste 0 1017.2 1 78
2019-05-23 00:00:00 18.2 5 Sudoeste 24 Sudoeste 0 1017 1 77
2019-05-22 23:00:00 18.7 14 Sudoeste 28 Sudoeste 0 1016.6 0.8 75
2019-05-22 22:00:00 18.8 8 Sudoeste 22 Sur 0 1016.2 0.4 71
2019-05-22 21:00:00 19.9 9 Sudoeste 39 Sur 0 1016 0.1 67
2019-05-22 20:00:00 21.5 17 Sudoeste 32 Sur 0 1015.8 -0.6 55
2019-05-22 19:00:00 22.8 19 Sur 35 Sur 0 1015.8 -1.1 49
2019-05-22 18:00:00 24.4 14 Sur 28 Sur 0 1015.9 -1.3 47
2019-05-22 17:00:00 24 19 Sudeste 33 Sur 0 1016.4 -1.1 49
2019-05-22 16:00:00 23.8 9 Sudeste 27 Este 0 1016.9 -0.7 51
2019-05-22 15:00:00 21.6 12 Este 23 Nordeste 0 1017.2 -0.3 67
2019-05-22 14:00:00 21.9 12 Este 20 Nordeste 0 1017.5 0.3 62
2019-05-22 13:00:00 21.7 12 Este 18 Nordeste 0 1017.6 0.1 63
2019-05-22 12:00:00 22.2 9 Este 17 Este 0 1017.5 0.4 60
2019-05-22 11:00:00 21.5 6 Este 13 Nordeste 0 1017.2 0.6 63
2019-05-22 10:00:00 19.8 5 Este 10 Nordeste 0 1017.5 1.3 76
2019-05-22 09:00:00 15.6 3 Sur 8 Sudoeste 0 1017.1 1.2 92
2019-05-22 08:00:00 12.5 5 Sudoeste 10 Sudoeste 0 1016.6 0.8 93
2019-05-22 07:00:00 12 9 Sudoeste 12 Oeste 0 1016.2 0.6 94
2019-05-22 06:00:00 11.6 4 Sudoeste 8 Sudoeste 0 1015.9 -0.1 92
2019-05-22 05:00:00 13.4 5 Oeste 11 Oeste 0 1015.8 -0.4 92
2019-05-22 04:00:00 14.2 5 Sudoeste 8 Oeste 0 1015.6 -0.5 91
2019-05-22 03:00:00 14.3 5 Sudoeste 8 Oeste 0 1016 0 91
2019-05-22 02:00:00 14.3 5 Sudoeste 9 Sudoeste 0 1016.2 0.6 90
2019-05-22 01:00:00 15 5 Norte 11 Sur 0 1016.1 0.9 88
2019-05-22 00:00:00 16.1 3 Norte 9 Oeste 0 1016 1.1 84
2019-05-21 23:00:00 17.1 5 Sudoeste 15 Oeste 0 1015.6 1.2 82
2019-05-21 22:00:00 18.2 10 Oeste 19 Oeste 0 1015.2 0.9 80
2019-05-21 21:00:00 18.6 11 Sudoeste 21 Sudoeste 0 1014.9 0.9 74
2019-05-21 20:00:00 19.7 11 Sudoeste 24 Sudoeste 0 1014.4 0.2 72
2019-05-21 19:00:00 22.1 16 Sudoeste 32 Sudoeste 0 1014.3 -0.3 60
2019-05-21 18:00:00 23.1 15 Sur 28 Sudeste 0 1014 -0.8 56
2019-05-21 17:00:00 23.7 13 Sur 26 Sudeste 0 1014.2 -0.7 52
2019-05-21 16:00:00 21.9 11 Sudeste 28 Sur 0 1014.6 -0.2 64
2019-05-21 15:00:00 20.9 8 Este 16 Nordeste 0 1014.8 0 67
2019-05-21 14:00:00 20.8 9 Este 17 Nordeste 0 1014.9 0.2 65
2019-05-21 13:00:00 20.4 4 Norte 18 Norte 0 1014.8 0.3 69
2019-05-21 12:00:00 18.4 7 Norte 20 Noroeste 0 1014.8 0.9 78
2019-05-21 11:00:00 17.7 17 Norte 26 Norte 0 1014.7 1 82
2019-05-21 10:00:00 17.1 11 Norte 19 Norte 0 1014.5 1.3 90
2019-05-21 09:00:00 15.5 4 Sudoeste 14 Oeste 0.2 1013.9 1.3 87
2019-05-21 08:00:00 15.4 8 Oeste 12 Oeste 0 1013.7 1.1 84
2019-05-21 07:00:00 15.4 7 Sudoeste 12 Oeste 0 1013.2 0.9 85
2019-05-21 06:00:00 14.9 5 Oeste 8 Sudoeste 0 1012.6 -0.1 91
2019-05-21 05:00:00 14.9 3 Oeste 6 Oeste 0 1012.6 -0.3 91
2019-05-21 04:00:00 14.9 0 Calma 5 Sur 0 1012.3 -0.4 86
2019-05-21 03:00:00 16.7 3 Sudoeste 7 Noroeste 0 1012.7 0.4 84
2019-05-21 02:00:00 16.6 5 Sudoeste 11 Sudoeste 0 1012.9 0.9 83
2019-05-21 01:00:00 17.4 6 Sudoeste 13 Oeste 0 1012.7 1.4 79
2019-05-21 00:00:00 17.7 4 Oeste 17 Sudoeste 0 1012.3 1.2 77
2019-05-20 23:00:00 17.8 8 Oeste 17 Oeste 0 1012 1 75
2019-05-20 22:00:00 17.8 8 Sudoeste 20 Sur 0 1011.3 0.1 76
2019-05-20 21:00:00 18.4 7 Sudoeste 18 Sudoeste 0 1011.1 -0.2 73
2019-05-20 20:00:00 19.2 8 Sudoeste 22 Sur 0 1011 -0.4 68
2019-05-20 19:00:00 19.9 13 Sur 22 Sur 0 1011.2 -0.6 62
2019-05-20 18:00:00 21.1 12 Sudeste 24 Sur 0 1011.3 -0.9 59
2019-05-20 17:00:00 23 14 Sur 24 Sur 0 1011.4 -1.3 44
2019-05-20 16:00:00 23.3 12 Sudeste 23 Este 0 1011.8 -1 43
2019-05-20 15:00:00 21.7 12 Este 22 Este 0 1012.2 -0.6 49
2019-05-20 14:00:00 21.1 13 Este 21 Este 0 1012.7 0.1 47
2019-05-20 13:00:00 20.1 9 Nordeste 17 Sudeste 0 1012.8 0.6 52
2019-05-20 12:00:00 20.8 9 Nordeste 18 Este 0 1012.8 1 49
2019-05-20 11:00:00 21 6 Este 15 Este 0 1012.6 1.3 42
2019-05-20 10:00:00 20.1 8 Nordeste 13 Nordeste 0 1012.2 1.7 50
2019-05-20 09:00:00 17 5 Oeste 11 Sudoeste 0 1011.8 1.5 63
2019-05-20 08:00:00 12.8 7 Sudoeste 10 Sudoeste 0 1011.3 1.1 78
2019-05-20 07:00:00 11.1 6 Oeste 13 Noroeste 0 1010.5 -0.1 81
2019-05-20 06:00:00 11.8 9 Oeste 14 Oeste 0 1010.3 -0.6 77
2019-05-20 05:00:00 10.2 6 Sudoeste 11 Sudoeste 0 1010.2 -1 83
2019-05-20 04:00:00 11.2 9 Oeste 13 Sudoeste 0 1010.6 -0.7 79
2019-05-20 03:00:00 11.1 8 Oeste 13 Oeste 0 1010.9 -0.1 82
2019-05-20 02:00:00 11.9 10 Oeste 17 Oeste 0 1011.2 0.6 80
2019-05-20 01:00:00 12.7 11 Sudoeste 14 Sudoeste 0 1011.3 1.5 79
2019-05-20 00:00:00 13.9 10 Sudoeste 12 Sudoeste 0 1011 1.8 72
2019-05-19 23:00:00 15.5 6 Oeste 9 Oeste 0 1010.6 1.8 64
2019-05-19 22:00:00 17.2 6 Sudoeste 22 Sudoeste 0 1009.8 1.3 59
2019-05-19 21:00:00 18.2 13 Sudoeste 26 Sudoeste 0 1009.2 0.8 62
2019-05-19 20:00:00 19.1 12 Sudoeste 26 Sudoeste 0 1008.8 0.2 62
2019-05-19 19:00:00 19.6 9 Sudoeste 27 Sudoeste 0 1008.5 -0.2 61
2019-05-19 18:00:00 20.4 15 Sur 28 Sur 0 1008.4 -0.3 54
2019-05-19 17:00:00 22.4 13 Sudoeste 33 Sudoeste 0 1008.6 -0.3 42
2019-05-19 16:00:00 22.8 14 Sur 27 Sur 0 1008.7 -0.5 47
2019-05-19 15:00:00 23.1 13 Sur 26 Sudoeste 0 1008.7 -0.7 43
2019-05-19 14:00:00 21.2 11 Sur 24 Este 0 1008.9 -0.5 49
2019-05-19 13:00:00 19 6 Nordeste 18 Este 0 1009.2 -0.4 52
2019-05-19 12:00:00 20.5 9 Este 25 Sudeste 0 1009.4 0.1 53
2019-05-19 11:00:00 21.4 6 Norte 18 Norte 0 1009.4 0.2 43
2019-05-19 10:00:00 19.2 12 Norte 22 Norte 0 1009.6 1 62
2019-05-19 09:00:00 16.9 6 Noroeste 14 Norte 0 1009.3 0.8 72
2019-05-19 08:00:00 11.9 5 Oeste 14 Sudoeste 0 1009.2 0.4 92
2019-05-19 07:00:00 11.2 9 Sudoeste 17 Oeste 0 1008.6 -0.3 88
2019-05-19 06:00:00 12.7 8 Oeste 13 Oeste 0 1008.5 -0.7 90
2019-05-19 05:00:00 13.4 7 Noroeste 17 Oeste 0 1008.8 -0.6 86
2019-05-19 04:00:00 13.5 6 Oeste 11 Oeste 0 1008.9 -0.3 81
2019-05-19 03:00:00 15.3 8 Norte 28 Norte 0 1009.2 0.3 75
2019-05-19 02:00:00 15.6 16 Norte 30 Noroeste 0 1009.4 0.5 79
2019-05-19 01:00:00 11.9 8 Sudoeste 13 Sudoeste 0 1009.2 0.6 82
2019-05-19 00:00:00 13.9 4 Sur 17 Oeste 0 1008.9 0.6 73
2019-05-18 23:00:00 15.1 11 Sudoeste 22 Sudoeste 0 1008.9 1.1 66
2019-05-18 22:00:00 15 6 Sudoeste 11 Sudoeste 0 1008.6 1 73
2019-05-18 21:00:00 17.8 3 Este 6 Sudeste 0 1008.3 0.6 62
2019-05-18 20:00:00 19.4 4 Este 15 Este 0 1007.8 0.8 58
2019-05-18 19:00:00 18.9 6 Este 19 Este 0.2 1007.6 0.2 63
2019-05-18 18:00:00 17.8 5 Este 16 Este 0.2 1007.7 -0.2 71
2019-05-18 17:00:00 19.5 6 Sudeste 12 Sudeste 0 1007 -1.1 59
2019-05-18 16:00:00 18.1 5 Sudeste 15 Este 0 1007.4 -1.2 65
2019-05-18 15:00:00 18.2 9 Nordeste 17 Nordeste 0 1007.9 0 61
2019-05-18 14:00:00 16.7 4 Nordeste 15 Este 1.2 1008.1 0.2 76
2019-05-18 13:00:00 18.1 4 Este 21 Este 0 1008.6 0.6 59
2019-05-18 12:00:00 18.6 13 Nordeste 24 Nordeste 0 1007.9 0.1 50
2019-05-18 11:00:00 19.5 11 Nordeste 20 Nordeste 0 1007.9 0.4 51
2019-05-18 10:00:00 18.6 9 Nordeste 19 Nordeste 0 1008 0.7 53
2019-05-18 09:00:00 18.5 6 Nordeste 13 Nordeste 0 1007.8 0.8 58
2019-05-18 08:00:00 13.3 6 Sudoeste 9 Oeste 0 1007.5 0.5 63
2019-05-18 07:00:00 13.2 0 Calma 12 Noroeste 0 1007.3 0.2 59
2019-05-18 06:00:00 14.8 5 Oeste 20 Noroeste 0 1007 -0.7 49
2019-05-18 05:00:00 16 10 Noroeste 21 Noroeste 0 1007 -1.4 42
2019-05-18 04:00:00 13.6 12 Noroeste 24 Noroeste 0 1007.1 -1.3 52
2019-05-18 03:00:00 12.2 8 Oeste 14 Oeste 0 1007.7 -0.8 76
2019-05-18 02:00:00 12.8 7 Oeste 14 Oeste 0 1008.4 0.4 78
2019-05-18 01:00:00 13.3 5 Sudoeste 13 Oeste 0 1008.4 1.1 76
2019-05-18 00:00:00 14.3 3 Noroeste 8 Nordeste 0 1008.5 1.9 74
2019-05-17 23:00:00 16.3 4 Norte 9 Este 0 1008 2.1 66
2019-05-17 22:00:00 17.3 4 Sur 8 Sur 0 1007.3 1.9 64
2019-05-17 21:00:00 18.3 2 Nordeste 15 Nordeste 0 1006.6 1.6 57
2019-05-17 20:00:00 19 11 Nordeste 35 Noroeste 0 1005.9 1.5 58
2019-05-17 19:00:00 21.3 15 Norte 33 Norte 0 1005.4 1.1 41
2019-05-17 18:00:00 21.7 17 Norte 40 Norte 0 1005 0.6 40
2019-05-17 17:00:00 24.6 17 Noroeste 40 Oeste 0 1004.4 0.3 26
2019-05-17 16:00:00 26.2 23 Oeste 50 Oeste 0 1004.3 0.3 24
2019-05-17 15:00:00 25.9 26 Oeste 48 Oeste 0 1004.4 0.6 23
2019-05-17 14:00:00 25.1 23 Oeste 45 Oeste 0 1004.1 0.6 25
2019-05-17 13:00:00 23.7 20 Oeste 55 Oeste 0 1004 0.9 25
2019-05-17 12:00:00 23.2 22 Oeste 50 Oeste 0 1003.8 2.2 27
2019-05-17 11:00:00 21.5 26 Oeste 60 Oeste 0 1003.5 1.8 30
2019-05-17 10:00:00 20.8 19 Oeste 55 Oeste 0 1003.1 2 33
2019-05-17 09:00:00 19.9 35 Oeste 71 Noroeste 0 1001.6 0.9 33
2019-05-17 08:00:00 19.2 22 Oeste 45 Oeste 0 1001.7 1.1 34
2019-05-17 07:00:00 15.2 7 Sudoeste 16 Oeste 0 1001.1 0.1 70
2019-05-17 06:00:00 15.7 8 Sudoeste 12 Oeste 0 1000.7 -0.9 78
2019-05-17 05:00:00 16.1 7 Oeste 16 Sudoeste 0 1000.6 -2.2 77
2019-05-17 04:00:00 16.7 10 Sudoeste 24 Sur 0 1001 -2.7 74
2019-05-17 03:00:00 16.4 4 Sudoeste 18 Sudoeste 0 1001.6 -2.6 80
2019-05-17 02:00:00 16.9 9 Sudoeste 26 Sudoeste 0 1002.8 -2.1 79
2019-05-17 01:00:00 16.7 8 Sudoeste 22 Sur 0 1003.7 -1.4 79
2019-05-17 00:00:00 17 8 Sudoeste 26 Sudoeste 0 1004.2 -1.1 78